createdAt,value
2019-04-22T00:01:55.383Z,1.00
2019-04-22T00:04:33.320Z,1.00
2019-04-22T00:07:17.441Z,1.00
2019-04-22T00:09:51.470Z,1.00
2019-04-22T00:12:28.020Z,1.00
2019-04-22T00:14:53.059Z,1.00
2019-04-22T00:17:45.409Z,1.00
2019-04-22T00:20:04.728Z,1.00
2019-04-22T00:22:31.996Z,1.00
2019-04-22T00:25:10.494Z,1.00
2019-04-22T00:27:40.586Z,1.00
2019-04-22T00:30:16.535Z,1.00
2019-04-22T00:32:51.286Z,1.00
2019-04-22T00:35:25.180Z,1.00
2019-04-22T00:38:09.228Z,1.00
2019-04-22T00:40:36.655Z,1.00
2019-04-22T00:43:10.088Z,1.00
2019-04-22T00:45:40.458Z,1.00
2019-04-22T00:48:15.992Z,1.00
2019-04-22T00:50:46.331Z,1.00
2019-04-22T00:53:20.473Z,1.00
2019-04-22T00:56:14.415Z,1.00
2019-04-22T01:06:23.597Z,1.00
2019-04-22T01:09:00.402Z,1.00
2019-04-22T01:13:55.753Z,1.00
2019-04-22T01:16:28.090Z,1.00
2019-04-22T01:19:00.534Z,1.00
2019-04-22T01:21:40.441Z,1.00
2019-04-22T01:24:02.928Z,1.00
2019-04-22T01:26:36.240Z,1.00
2019-04-22T01:29:00.854Z,1.00
2019-04-22T01:31:27.537Z,1.00
2019-04-22T01:34:10.319Z,1.00
2019-04-22T01:36:48.681Z,1.00
2019-04-22T01:39:21.565Z,1.00
2019-04-22T01:42:04.634Z,1.00
2019-04-22T01:44:37.554Z,1.00
2019-04-22T01:47:03.753Z,1.00
2019-04-22T01:49:34.341Z,1.00
2019-04-22T01:52:07.725Z,1.00
2019-04-22T01:54:45.469Z,1.00
2019-04-22T01:57:15.950Z,1.00
2019-04-22T01:59:38.043Z,1.00
2019-04-22T02:02:17.597Z,1.00
2019-04-22T02:07:28.049Z,1.00
2019-04-22T02:09:53.411Z,1.00
2019-04-22T02:14:50.351Z,1.00
2019-04-22T02:17:32.310Z,1.00
2019-04-22T02:20:04.036Z,1.00
2019-04-22T02:22:50.179Z,1.00
2019-04-22T02:25:08.479Z,1.00
2019-04-22T02:27:43.202Z,1.00
2019-04-22T02:30:05.469Z,1.00
2019-04-22T02:35:23.765Z,1.00
2019-04-22T02:37:48.057Z,1.00
2019-04-22T02:43:01.405Z,1.00
2019-04-22T02:45:26.633Z,1.00
2019-04-22T02:48:06.727Z,1.00
2019-04-22T02:50:28.620Z,1.00
2019-04-22T02:53:01.169Z,1.00
2019-04-22T02:55:40.801Z,1.00
2019-04-22T02:58:05.929Z,1.00
2019-04-22T03:00:46.656Z,1.00
2019-04-22T03:03:20.547Z,1.00
2019-04-22T03:05:56.640Z,1.00
2019-04-22T03:10:56.604Z,1.00
2019-04-22T03:13:29.218Z,1.00
2019-04-22T03:16:08.317Z,1.00
2019-04-22T03:26:11.522Z,1.00
2019-04-22T03:28:51.183Z,1.00
2019-04-22T03:35:09.774Z,1.00
2019-04-22T03:42:07.156Z,1.00
2019-04-22T03:54:49.857Z,1.00
2019-04-22T03:59:48.101Z,1.00
2019-04-22T04:02:29.202Z,1.00
2019-04-22T04:04:51.852Z,1.00
2019-04-22T04:07:31.019Z,1.00
2019-04-22T04:10:01.494Z,1.00
2019-04-22T04:15:07.459Z,1.00
2019-04-22T04:28:04.479Z,1.00
2019-04-22T04:30:23.620Z,1.00
2019-04-22T04:35:28.107Z,1.00
2019-04-22T04:37:52.354Z,1.00
2019-04-22T04:45:38.530Z,1.00
2019-04-22T04:47:54.879Z,1.00
2019-04-22T04:50:35.338Z,1.00
2019-04-22T04:53:06.277Z,1.00
2019-04-22T04:55:28.550Z,1.00
2019-04-22T04:58:22.148Z,1.00
2019-04-22T05:00:51.494Z,1.00
2019-04-22T05:08:23.944Z,1.00
2019-04-22T05:13:14.116Z,1.00
2019-04-22T05:16:07.216Z,1.00
2019-04-22T05:20:59.995Z,1.00
2019-04-22T05:23:28.886Z,1.00
2019-04-22T05:25:55.131Z,1.00
2019-04-22T05:28:24.192Z,1.00
2019-04-22T05:30:57.176Z,1.00
2019-04-22T05:33:33.044Z,1.00
2019-04-22T05:36:02.965Z,1.00
2019-04-22T05:41:02.618Z,1.00
2019-04-22T05:43:34.474Z,1.00
2019-04-22T05:46:09.242Z,1.00
2019-04-22T05:48:52.209Z,1.00
2019-04-22T05:51:09.988Z,1.00
2019-04-22T05:53:41.620Z,1.00
2019-04-22T05:58:56.544Z,1.00
2019-04-22T06:04:05.487Z,1.00
2019-04-22T06:06:45.291Z,1.00
2019-04-22T06:09:05.080Z,1.00
2019-04-22T06:11:33.872Z,1.00
2019-04-22T06:14:07.625Z,1.00
2019-04-22T06:16:51.449Z,1.00
2019-04-22T06:19:33.153Z,1.00
2019-04-22T06:21:50.145Z,1.00
2019-04-22T06:24:33.854Z,1.00
2019-04-22T06:27:04.469Z,1.00
2019-04-22T06:29:25.031Z,1.00
2019-04-22T06:32:17.879Z,1.00
2019-04-22T06:34:38.567Z,1.00
2019-04-22T06:37:07.332Z,1.00
2019-04-22T06:39:34.238Z,1.00
2019-04-22T06:42:08.099Z,1.00
2019-04-22T06:44:36.281Z,1.00
2019-04-22T06:47:21.081Z,1.00
2019-04-22T06:49:42.381Z,1.00
2019-04-22T06:54:50.403Z,2.10
2019-04-22T06:57:23.992Z,4.10
2019-04-22T06:59:56.665Z,6.70
2019-04-22T07:02:25.629Z,8.70
2019-04-22T07:04:56.590Z,10.30
2019-04-22T07:07:26.667Z,11.40
2019-04-22T07:10:11.696Z,13.20
2019-04-22T07:12:31.938Z,16.30
2019-04-22T07:15:02.882Z,17.10
2019-04-22T07:20:10.502Z,15.90
2019-04-22T07:22:40.354Z,16.70
2019-04-22T07:25:10.216Z,26.10
2019-04-22T07:27:48.654Z,15.50
2019-04-22T07:33:05.052Z,18.20
2019-04-22T07:37:51.603Z,19.60
2019-04-22T07:40:28.685Z,19.90
2019-04-22T07:42:57.122Z,22.30
2019-04-22T07:45:29.629Z,23.20
2019-04-22T07:48:09.630Z,24.00
2019-04-22T07:50:50.687Z,25.90
2019-04-22T07:53:05.534Z,27.10
2019-04-22T07:55:39.859Z,27.40
2019-04-22T07:58:11.757Z,28.70
2019-04-22T08:00:38.718Z,29.50
2019-04-22T08:03:20.852Z,29.30
2019-04-22T08:05:58.762Z,30.10
2019-04-22T08:13:28.983Z,34.40
2019-04-22T08:15:58.219Z,36.20
2019-04-22T08:18:32.897Z,39.10
2019-04-22T08:20:58.445Z,37.00
2019-04-22T08:23:39.964Z,39.50
2019-04-22T08:26:00.789Z,42.70
2019-04-22T08:28:40.499Z,43.40
2019-04-22T08:33:39.826Z,48.00
2019-04-22T08:43:57.429Z,52.40
2019-04-22T08:56:45.991Z,53.90
2019-04-22T08:59:10.948Z,56.70
2019-04-22T09:01:36.079Z,56.10
2019-04-22T09:04:06.949Z,57.70
2019-04-22T09:07:02.472Z,59.10
2019-04-22T09:09:15.870Z,59.50
2019-04-22T09:11:47.083Z,64.00
2019-04-22T09:14:24.244Z,67.20
2019-04-22T09:16:49.870Z,68.10
2019-04-22T09:19:26.595Z,71.30
2019-04-22T09:24:29.922Z,69.50
2019-04-22T09:27:03.475Z,70.70
2019-04-22T09:29:34.135Z,65.20
2019-04-22T09:32:09.477Z,66.00
2019-04-22T09:34:36.254Z,67.90
2019-04-22T09:37:16.861Z,70.30
2019-04-22T09:39:41.395Z,67.90
2019-04-22T09:42:14.089Z,73.30
2019-04-22T09:47:19.241Z,88.10
2019-04-22T09:50:03.806Z,92.80
2019-04-22T09:55:00.246Z,93.40
2019-04-22T09:57:24.913Z,93.70
2019-04-22T10:02:33.908Z,94.70
2019-04-22T10:05:00.200Z,95.80
2019-04-22T10:07:32.003Z,96.60
2019-04-22T10:12:36.601Z,95.10
2019-04-22T10:15:05.213Z,93.80
2019-04-22T10:17:42.673Z,91.80
2019-04-22T10:20:13.345Z,90.40
2019-04-22T10:22:45.790Z,89.50
2019-04-22T10:25:17.058Z,84.60
2019-04-22T10:27:57.771Z,83.50
2019-04-22T10:30:32.135Z,77.80
2019-04-22T10:32:56.274Z,74.20
2019-04-22T10:35:12.162Z,76.80
2019-04-22T10:37:38.733Z,72.80
2019-04-22T10:40:17.743Z,65.30
2019-04-22T10:42:49.489Z,60.80
2019-04-22T10:45:20.041Z,61.50
2019-04-22T10:47:52.133Z,59.30
2019-04-22T10:50:31.484Z,59.20
2019-04-22T10:53:01.622Z,59.00
2019-04-22T10:55:32.001Z,57.70
2019-04-22T10:58:02.515Z,58.60
2019-04-22T11:00:33.640Z,58.50
2019-04-22T11:03:04.253Z,59.00
2019-04-22T11:05:35.103Z,58.30
2019-04-22T11:08:08.015Z,53.80
2019-04-22T11:10:56.361Z,52.70
2019-04-22T11:13:10.902Z,51.30
2019-04-22T11:15:44.575Z,50.70
2019-04-22T11:18:16.103Z,50.60
2019-04-22T11:20:47.405Z,49.70
2019-04-22T11:23:18.662Z,50.10
2019-04-22T11:25:50.032Z,49.80
2019-04-22T11:28:20.676Z,53.00
2019-04-22T11:30:52.261Z,67.00
2019-04-22T11:33:22.889Z,50.00
2019-04-22T11:35:53.274Z,52.40
2019-04-22T11:38:24.637Z,53.90
2019-04-22T11:40:57.475Z,55.50
2019-04-22T11:43:28.499Z,56.30
2019-04-22T11:45:59.546Z,55.10
2019-04-22T11:48:31.152Z,57.00
2019-04-22T11:51:02.061Z,55.20
2019-04-22T11:53:32.547Z,57.70
2019-04-22T11:56:02.990Z,58.00
2019-04-22T11:58:34.841Z,54.80
2019-04-22T12:01:06.681Z,55.20
2019-04-22T12:03:37.971Z,57.40
2019-04-22T12:06:08.541Z,59.70
2019-04-22T12:08:39.669Z,64.50
2019-04-22T12:11:11.643Z,64.00
2019-04-22T12:13:42.265Z,64.60
2019-04-22T12:16:13.617Z,64.40
2019-04-22T12:18:44.956Z,66.10
2019-04-22T12:21:15.476Z,61.50
2019-04-22T12:23:47.277Z,62.20
2019-04-22T12:26:20.546Z,63.40
2019-04-22T12:28:50.999Z,59.60
2019-04-22T12:31:21.914Z,58.10
2019-04-22T12:33:53.086Z,60.80
2019-04-22T12:36:24.602Z,60.90
2019-04-22T12:38:55.655Z,61.50
2019-04-22T12:41:27.686Z,59.80
2019-04-22T12:43:58.997Z,60.30
2019-04-22T12:46:30.138Z,62.00
2019-04-22T12:49:02.266Z,66.70
2019-04-22T12:51:33.282Z,70.10
2019-04-22T12:54:03.941Z,71.50
2019-04-22T12:56:35.469Z,70.00
2019-04-22T12:59:05.970Z,69.90
2019-04-22T13:01:37.183Z,86.50
2019-04-22T13:04:10.251Z,68.70
2019-04-22T13:06:39.940Z,71.70
2019-04-22T13:09:10.568Z,68.60
2019-04-22T13:11:44.167Z,63.60
2019-04-22T13:14:15.005Z,61.60
2019-04-22T13:16:47.139Z,63.40
2019-04-22T13:19:20.850Z,59.90
2019-04-22T13:21:51.002Z,59.30
2019-04-22T13:24:21.818Z,58.20
2019-04-22T13:26:53.002Z,56.00
2019-04-22T13:29:25.121Z,57.70
2019-04-22T13:31:55.960Z,56.50
2019-04-22T13:34:33.691Z,57.30
2019-04-22T13:36:58.984Z,58.80
2019-04-22T13:39:29.604Z,55.30
2019-04-22T13:42:04.007Z,56.00
2019-04-22T13:44:33.461Z,58.20
2019-04-22T13:47:19.691Z,59.10
2019-04-22T13:50:08.819Z,60.90
2019-04-22T13:55:05.331Z,66.40
2019-04-22T13:57:34.418Z,68.60
2019-04-22T13:59:49.942Z,69.00
2019-04-22T14:02:36.808Z,68.80
2019-04-22T14:05:10.564Z,68.20
2019-04-22T14:07:41.232Z,66.20
2019-04-22T14:10:12.218Z,63.70
2019-04-22T14:12:42.728Z,62.40
2019-04-22T14:15:14.219Z,62.60
2019-04-22T14:17:45.379Z,61.70
2019-04-22T14:20:16.483Z,60.70
2019-04-22T14:22:48.416Z,59.70
2019-04-22T14:25:18.979Z,60.30
2019-04-22T14:27:56.578Z,59.00
2019-04-22T14:30:21.776Z,57.30
2019-04-22T14:32:52.158Z,59.40
2019-04-22T14:35:23.005Z,62.40
2019-04-22T14:37:54.494Z,61.80
2019-04-22T14:40:28.071Z,62.10
2019-04-22T14:43:23.255Z,62.90
2019-04-22T14:48:37.347Z,62.90
2019-04-22T14:50:57.072Z,80.70
2019-04-22T14:53:30.975Z,61.50
2019-04-22T14:55:42.417Z,61.10
2019-04-22T14:58:13.091Z,63.50
2019-04-22T15:00:44.275Z,60.20
2019-04-22T15:03:15.707Z,58.50
2019-04-22T15:05:46.288Z,57.60
2019-04-22T15:08:17.298Z,58.90
2019-04-22T15:10:47.898Z,56.70
2019-04-22T15:13:18.264Z,55.50
2019-04-22T15:16:07.765Z,53.70
2019-04-22T15:18:55.768Z,52.80
2019-04-22T15:21:27.033Z,52.10
2019-04-22T15:24:02.487Z,52.50
2019-04-22T15:26:32.859Z,50.60
2019-04-22T15:29:03.284Z,50.90
2019-04-22T15:31:33.817Z,49.20
2019-04-22T15:34:04.554Z,50.30
2019-04-22T15:36:36.301Z,50.20
2019-04-22T15:39:09.320Z,47.70
2019-04-22T15:41:41.105Z,49.90
2019-04-22T15:44:12.058Z,52.40
2019-04-22T15:46:42.686Z,49.60
2019-04-22T15:49:13.815Z,50.10
2019-04-22T15:51:44.912Z,49.70
2019-04-22T15:54:16.078Z,51.70
2019-04-22T15:56:46.701Z,54.00
2019-04-22T15:59:35.976Z,53.10
2019-04-22T16:01:50.465Z,55.40
2019-04-22T16:04:21.023Z,54.80
2019-04-22T16:06:52.766Z,53.50
2019-04-22T16:09:24.889Z,53.60
2019-04-22T16:12:00.443Z,55.00
2019-04-22T16:14:34.670Z,52.60
2019-04-22T16:17:00.889Z,52.30
2019-04-22T16:19:32.838Z,51.60
2019-04-22T16:22:08.696Z,51.40
2019-04-22T16:24:47.929Z,50.80
2019-04-22T16:27:22.816Z,52.90
2019-04-22T16:29:55.007Z,50.40
2019-04-22T16:32:27.606Z,48.70
2019-04-22T16:34:58.883Z,49.30
2019-04-22T16:37:30.586Z,62.20
2019-04-22T16:40:01.118Z,46.10
2019-04-22T16:42:41.302Z,48.10
2019-04-22T16:45:03.831Z,45.30
2019-04-22T16:47:35.576Z,45.70
2019-04-22T16:50:07.969Z,44.40
2019-04-22T16:52:39.828Z,44.00
2019-04-22T16:55:10.705Z,42.10
2019-04-22T16:57:42.089Z,55.30
2019-04-22T17:00:14.419Z,41.70
2019-04-22T17:03:06.869Z,40.60
2019-04-22T17:06:05.462Z,39.40
2019-04-22T17:08:36.977Z,37.60
2019-04-22T17:11:09.330Z,37.10
2019-04-22T17:13:41.931Z,35.70
2019-04-22T17:16:13.754Z,36.20
2019-04-22T17:18:45.549Z,35.00
2019-04-22T17:21:17.589Z,34.30
2019-04-22T17:23:49.660Z,35.90
2019-04-22T17:26:20.758Z,33.50
2019-04-22T17:28:51.590Z,33.70
2019-04-22T17:31:22.834Z,32.90
2019-04-22T17:33:54.884Z,35.80
2019-04-22T17:36:26.565Z,32.80
2019-04-22T17:39:13.122Z,33.10
2019-04-22T17:41:53.982Z,31.40
2019-04-22T17:44:41.442Z,31.50
2019-04-22T17:47:34.171Z,30.60
2019-04-22T17:50:20.282Z,31.90
2019-04-22T17:52:51.182Z,30.00
2019-04-22T17:55:22.988Z,29.20
2019-04-22T17:57:49.228Z,28.70
2019-04-22T18:00:18.649Z,28.50
2019-04-22T18:02:52.035Z,29.50
2019-04-22T18:05:13.029Z,28.80
2019-04-22T18:08:02.615Z,28.60
2019-04-22T18:10:47.674Z,27.60
2019-04-22T18:13:14.333Z,27.40
2019-04-22T18:15:40.693Z,25.60
2019-04-22T18:18:12.978Z,24.60
2019-04-22T18:20:35.317Z,23.90
2019-04-22T18:23:02.676Z,24.00
2019-04-22T18:25:45.050Z,23.50
2019-04-22T18:28:26.394Z,23.40
2019-04-22T18:30:44.149Z,24.50
2019-04-22T18:33:24.313Z,21.40
2019-04-22T18:35:51.514Z,21.50
2019-04-22T18:38:33.170Z,20.90
2019-04-22T18:40:57.320Z,19.90
2019-04-22T18:43:39.411Z,20.00
2019-04-22T18:46:26.463Z,19.60
2019-04-22T18:48:33.255Z,31.80
2019-04-22T18:51:20.230Z,21.10
2019-04-22T18:54:10.359Z,20.20
2019-04-22T18:56:42.155Z,19.10
2019-04-22T18:59:02.198Z,19.20
2019-04-22T19:01:24.260Z,18.20
2019-04-22T19:04:04.665Z,18.50
2019-04-22T19:06:50.526Z,17.60
2019-04-22T19:09:20.423Z,16.40
2019-04-22T19:12:01.801Z,16.30
2019-04-22T19:14:24.238Z,16.00
2019-04-22T19:17:05.917Z,16.80
2019-04-22T19:19:33.308Z,14.90
2019-04-22T19:21:58.918Z,15.20
2019-04-22T19:24:29.145Z,14.50
2019-04-22T19:27:01.985Z,14.60
2019-04-22T19:29:39.898Z,13.60
2019-04-22T19:32:07.249Z,13.40
2019-04-22T19:34:36.804Z,12.70
2019-04-22T19:37:13.423Z,12.50
2019-04-22T19:39:52.896Z,11.30
2019-04-22T19:42:28.735Z,10.90
2019-04-22T19:44:53.120Z,11.00
2019-04-22T19:47:34.101Z,10.70
2019-04-22T19:49:58.068Z,22.50
2019-04-22T19:52:28.890Z,10.40
2019-04-22T19:55:01.983Z,10.60
2019-04-22T19:57:27.648Z,9.30
2019-04-22T20:00:01.766Z,9.20
2019-04-22T20:03:03.566Z,8.60
2019-04-22T20:05:48.061Z,8.50
2019-04-22T20:08:21.507Z,8.10
2019-04-22T20:10:52.622Z,7.80
2019-04-22T20:13:30.985Z,7.80
2019-04-22T20:15:45.997Z,7.30
2019-04-22T20:18:37.266Z,6.90
2019-04-22T20:21:07.530Z,7.80
2019-04-22T20:23:26.351Z,6.20
2019-04-22T20:26:00.484Z,7.10
2019-04-22T20:28:37.778Z,7.00
2019-04-22T20:31:08.467Z,6.10
2019-04-22T20:33:46.177Z,5.80
2019-04-22T20:36:26.463Z,5.70
2019-04-22T20:38:46.655Z,5.10
2019-04-22T20:41:13.479Z,15.70
2019-04-22T20:43:53.072Z,4.70
2019-04-22T20:46:20.303Z,5.20
2019-04-22T20:48:54.846Z,5.00
2019-04-22T20:51:35.378Z,4.70
2019-04-22T20:54:02.846Z,5.00
2019-04-22T20:56:30.002Z,5.30
2019-04-22T20:59:01.688Z,4.80
2019-04-22T21:01:35.644Z,5.10
2019-04-22T21:03:53.565Z,5.00
2019-04-22T21:06:38.099Z,5.20
2019-04-22T21:09:15.531Z,5.20
2019-04-22T21:11:40.879Z,4.30
2019-04-22T21:14:14.788Z,3.60
2019-04-22T21:16:51.873Z,2.50
2019-04-22T21:19:28.100Z,2.30
2019-04-22T21:21:58.068Z,2.80
2019-04-22T21:24:23.742Z,3.50
2019-04-22T21:26:58.463Z,2.00
2019-04-22T21:29:26.752Z,1.30
2019-04-22T21:32:03.058Z,1.00
2019-04-22T21:34:41.391Z,1.00
2019-04-22T21:37:16.019Z,1.00
2019-04-22T21:42:11.861Z,1.00
2019-04-22T21:44:47.064Z,1.40
2019-04-22T21:47:23.825Z,1.00
2019-04-22T21:49:58.104Z,1.00
2019-04-22T21:52:22.635Z,1.00
2019-04-22T21:54:59.494Z,1.00
2019-04-22T21:57:44.094Z,1.00
2019-04-22T22:00:15.088Z,1.00
2019-04-22T22:02:45.777Z,1.00
2019-04-22T22:05:08.638Z,1.00
2019-04-22T22:07:29.176Z,1.00
2019-04-22T22:10:16.247Z,1.00
2019-04-22T22:12:54.857Z,1.00
2019-04-22T22:15:25.904Z,1.00
2019-04-22T22:17:57.058Z,1.00
2019-04-22T22:20:22.783Z,1.00
2019-04-22T22:23:09.076Z,1.00
2019-04-22T22:25:35.068Z,1.00
2019-04-22T22:28:34.443Z,1.00
2019-04-22T22:30:58.251Z,1.00
2019-04-22T22:33:17.025Z,1.00
2019-04-22T22:35:54.710Z,1.00
2019-04-22T22:38:24.298Z,1.00
2019-04-22T22:40:39.681Z,1.00
2019-04-22T22:43:17.178Z,1.00
2019-04-22T22:45:49.134Z,1.00
2019-04-22T22:48:40.959Z,1.00
2019-04-22T22:51:05.301Z,1.00
2019-04-22T22:56:13.671Z,1.00
2019-04-22T22:58:45.925Z,1.00
2019-04-22T23:01:14.674Z,1.00
2019-04-22T23:04:02.465Z,1.00
2019-04-22T23:06:26.248Z,1.00
2019-04-22T23:09:02.399Z,1.00
2019-04-22T23:11:47.668Z,1.00
2019-04-22T23:13:57.874Z,1.00
2019-04-22T23:16:19.377Z,1.00
2019-04-22T23:19:15.594Z,1.00
2019-04-22T23:21:51.903Z,1.00
2019-04-22T23:24:59.825Z,1.00
2019-04-22T23:27:40.289Z,1.00
2019-04-22T23:30:21.684Z,1.00
2019-04-22T23:33:03.301Z,1.00
2019-04-22T23:35:55.560Z,1.00
2019-04-22T23:38:33.919Z,1.00
2019-04-22T23:41:05.661Z,1.00
2019-04-22T23:43:44.971Z,1.00
2019-04-22T23:46:13.464Z,1.00
2019-04-22T23:48:36.113Z,1.00
2019-04-22T23:51:16.761Z,1.00
2019-04-22T23:54:00.876Z,1.00
2019-04-22T23:56:19.665Z,1.00
2019-04-22T23:59:13.155Z,1.00
